Terminal Aerodrome Forecast
Issued by NWS

Home | Current Version | Previous Version | Text Only | Print | Product List | Glossary On
Versions: 1 2 3 4 5 6 7 8 9 10 11 12 13 14 15 16 17 18 19 20 21 22 23 24 25 26
000
FTUS41 KBGM 051738
TAFITH
TAF
KITH 051738Z 0518/0618 02006KT P6SM OVC025
      TEMPO 0520/0524 BKN035
     FM060000 34004KT P6SM BKN040
     FM061400 01010KT P6SM BKN035
      TEMPO 0616/0618 -RA=

USA.gov is the U.S. government's official web portal to all federal, state and local government web resources and services.